sensor_id;sensor_type;location;lat;lon;timestamp;temperature;humidity
39401;DHT22;54391;50.000;7.360;2022-08-19T00:01:25;19.00;25.40
39401;DHT22;54391;50.000;7.360;2022-08-19T00:03:55;18.90;26.30
39401;DHT22;54391;50.000;7.360;2022-08-19T00:06:22;18.90;26.80
39401;DHT22;54391;50.000;7.360;2022-08-19T00:08:51;18.80;26.50
39401;DHT22;54391;50.000;7.360;2022-08-19T00:11:18;18.90;25.90
39401;DHT22;54391;50.000;7.360;2022-08-19T00:13:46;18.90;26.20
39401;DHT22;54391;50.000;7.360;2022-08-19T00:16:15;18.90;26.50
39401;DHT22;54391;50.000;7.360;2022-08-19T00:18:43;18.90;26.00
39401;DHT22;54391;50.000;7.360;2022-08-19T00:23:38;19.10;25.10
39401;DHT22;54391;50.000;7.360;2022-08-19T00:26:07;19.00;24.80
39401;DHT22;54391;50.000;7.360;2022-08-19T00:31:03;18.80;26.50
39401;DHT22;54391;50.000;7.360;2022-08-19T00:33:32;18.80;26.50
39401;DHT22;54391;50.000;7.360;2022-08-19T00:35:59;18.80;27.60
39401;DHT22;54391;50.000;7.360;2022-08-19T00:38:30;18.80;27.60
39401;DHT22;54391;50.000;7.360;2022-08-19T00:43:27;19.10;25.20
39401;DHT22;54391;50.000;7.360;2022-08-19T00:45:55;19.10;24.40
39401;DHT22;54391;50.000;7.360;2022-08-19T00:48:22;19.30;23.70
39401;DHT22;54391;50.000;7.360;2022-08-19T00:50:52;19.20;23.60
39401;DHT22;54391;50.000;7.360;2022-08-19T00:53:24;19.10;24.00
39401;DHT22;54391;50.000;7.360;2022-08-19T00:55:55;19.10;24.90
39401;DHT22;54391;50.000;7.360;2022-08-19T00:58:28;19.20;24.20
39401;DHT22;54391;50.000;7.360;2022-08-19T01:03:24;19.10;24.50
39401;DHT22;54391;50.000;7.360;2022-08-19T01:05:52;19.10;24.50
39401;DHT22;54391;50.000;7.360;2022-08-19T01:08:21;19.10;24.20
39401;DHT22;54391;50.000;7.360;2022-08-19T01:10:52;19.00;25.10
39401;DHT22;54391;50.000;7.360;2022-08-19T01:13:25;18.90;25.30
39401;DHT22;54391;50.000;7.360;2022-08-19T01:15:57;18.80;25.60
39401;DHT22;54391;50.000;7.360;2022-08-19T01:18:26;18.80;26.10
39401;DHT22;54391;50.000;7.360;2022-08-19T01:20:58;18.60;27.30
39401;DHT22;54391;50.000;7.360;2022-08-19T01:23:29;18.10;30.60
39401;DHT22;54391;50.000;7.360;2022-08-19T01:26:10;18.00;31.80
39401;DHT22;54391;50.000;7.360;2022-08-19T01:28:38;17.90;33.90
39401;DHT22;54391;50.000;7.360;2022-08-19T01:31:06;17.90;33.90
39401;DHT22;54391;50.000;7.360;2022-08-19T01:33:36;18.00;34.60
39401;DHT22;54391;50.000;7.360;2022-08-19T01:36:06;17.90;34.40
39401;DHT22;54391;50.000;7.360;2022-08-19T01:38:37;17.40;39.40
39401;DHT22;54391;50.000;7.360;2022-08-19T01:41:05;17.60;38.50
39401;DHT22;54391;50.000;7.360;2022-08-19T01:43:33;17.60;38.60
39401;DHT22;54391;50.000;7.360;2022-08-19T01:48:34;17.70;41.00
39401;DHT22;54391;50.000;7.360;2022-08-19T01:53:29;17.60;40.80
39401;DHT22;54391;50.000;7.360;2022-08-19T01:55:58;17.50;42.90
39401;DHT22;54391;50.000;7.360;2022-08-19T01:58:32;17.40;43.40
39401;DHT22;54391;50.000;7.360;2022-08-19T02:01:02;17.40;44.50
39401;DHT22;54391;50.000;7.360;2022-08-19T02:03:30;17.50;42.60
39401;DHT22;54391;50.000;7.360;2022-08-19T02:05:59;17.30;44.40
39401;DHT22;54391;50.000;7.360;2022-08-19T02:08:27;17.20;44.70
39401;DHT22;54391;50.000;7.360;2022-08-19T02:10:55;17.10;48.60
39401;DHT22;54391;50.000;7.360;2022-08-19T02:13:25;17.00;49.20
39401;DHT22;54391;50.000;7.360;2022-08-19T02:15:53;17.30;49.30
39401;DHT22;54391;50.000;7.360;2022-08-19T02:18:20;17.40;46.90
39401;DHT22;54391;50.000;7.360;2022-08-19T02:20:48;17.30;49.10
39401;DHT22;54391;50.000;7.360;2022-08-19T02:23:16;17.40;48.20
39401;DHT22;54391;50.000;7.360;2022-08-19T02:25:46;17.50;47.00
39401;DHT22;54391;50.000;7.360;2022-08-19T02:28:14;17.60;46.80
39401;DHT22;54391;50.000;7.360;2022-08-19T02:30:43;17.70;45.90
39401;DHT22;54391;50.000;7.360;2022-08-19T02:33:10;18.00;43.30
39401;DHT22;54391;50.000;7.360;2022-08-19T02:35:41;18.00;42.60
39401;DHT22;54391;50.000;7.360;2022-08-19T02:38:08;18.30;41.40
39401;DHT22;54391;50.000;7.360;2022-08-19T02:40:56;18.10;41.00
39401;DHT22;54391;50.000;7.360;2022-08-19T02:43:24;18.10;41.60
39401;DHT22;54391;50.000;7.360;2022-08-19T02:48:22;18.20;40.50
39401;DHT22;54391;50.000;7.360;2022-08-19T02:50:51;18.00;40.30
39401;DHT22;54391;50.000;7.360;2022-08-19T02:53:22;18.00;40.40
39401;DHT22;54391;50.000;7.360;2022-08-19T02:55:50;17.90;41.30
39401;DHT22;54391;50.000;7.360;2022-08-19T02:58:18;17.80;42.00
39401;DHT22;54391;50.000;7.360;2022-08-19T03:00:49;17.60;44.20
39401;DHT22;54391;50.000;7.360;2022-08-19T03:03:19;17.80;42.90
39401;DHT22;54391;50.000;7.360;2022-08-19T03:05:47;17.80;42.30
39401;DHT22;54391;50.000;7.360;2022-08-19T03:08:15;17.90;42.20
39401;DHT22;54391;50.000;7.360;2022-08-19T03:10:44;17.90;42.40
39401;DHT22;54391;50.000;7.360;2022-08-19T03:13:13;17.90;42.00
39401;DHT22;54391;50.000;7.360;2022-08-19T03:15:41;17.80;42.30
39401;DHT22;54391;50.000;7.360;2022-08-19T03:18:10;17.80;42.70
39401;DHT22;54391;50.000;7.360;2022-08-19T03:20:43;17.60;43.70
39401;DHT22;54391;50.000;7.360;2022-08-19T03:23:11;17.50;44.00
39401;DHT22;54391;50.000;7.360;2022-08-19T03:25:40;17.60;44.80
39401;DHT22;54391;50.000;7.360;2022-08-19T03:28:09;17.50;46.00
39401;DHT22;54391;50.000;7.360;2022-08-19T03:30:38;17.60;44.80
39401;DHT22;54391;50.000;7.360;2022-08-19T03:33:06;17.60;44.80
39401;DHT22;54391;50.000;7.360;2022-08-19T03:35:34;17.50;45.20
39401;DHT22;54391;50.000;7.360;2022-08-19T03:38:04;17.60;44.90
39401;DHT22;54391;50.000;7.360;2022-08-19T03:40:32;17.60;45.60
39401;DHT22;54391;50.000;7.360;2022-08-19T03:43:00;17.60;44.90
39401;DHT22;54391;50.000;7.360;2022-08-19T03:45:28;17.50;45.60
39401;DHT22;54391;50.000;7.360;2022-08-19T03:47:55;17.50;46.00
39401;DHT22;54391;50.000;7.360;2022-08-19T03:50:23;16.90;50.20
39401;DHT22;54391;50.000;7.360;2022-08-19T03:52:51;16.80;55.00
39401;DHT22;54391;50.000;7.360;2022-08-19T04:00:16;16.90;54.50
39401;DHT22;54391;50.000;7.360;2022-08-19T04:02:43;17.10;53.10
39401;DHT22;54391;50.000;7.360;2022-08-19T04:05:11;17.10;53.40
39401;DHT22;54391;50.000;7.360;2022-08-19T04:10:08;17.40;49.20
39401;DHT22;54391;50.000;7.360;2022-08-19T04:12:37;17.40;49.80
39401;DHT22;54391;50.000;7.360;2022-08-19T04:15:05;17.50;49.50
39401;DHT22;54391;50.000;7.360;2022-08-19T04:17:34;17.40;49.10
39401;DHT22;54391;50.000;7.360;2022-08-19T04:20:02;17.40;49.80
39401;DHT22;54391;50.000;7.360;2022-08-19T04:22:29;17.30;50.60
39401;DHT22;54391;50.000;7.360;2022-08-19T04:24:56;17.30;51.80
39401;DHT22;54391;50.000;7.360;2022-08-19T04:27:24;17.30;50.40
39401;DHT22;54391;50.000;7.360;2022-08-19T04:29:53;17.20;51.70
39401;DHT22;54391;50.000;7.360;2022-08-19T04:32:21;17.20;51.90
39401;DHT22;54391;50.000;7.360;2022-08-19T04:34:48;17.00;53.80
39401;DHT22;54391;50.000;7.360;2022-08-19T04:37:15;16.90;55.00
39401;DHT22;54391;50.000;7.360;2022-08-19T04:39:43;16.70;55.60
39401;DHT22;54391;50.000;7.360;2022-08-19T04:42:29;16.90;55.60
39401;DHT22;54391;50.000;7.360;2022-08-19T04:45:09;16.90;56.10
39401;DHT22;54391;50.000;7.360;2022-08-19T04:50:06;16.80;56.60
39401;DHT22;54391;50.000;7.360;2022-08-19T04:52:33;16.80;56.40
39401;DHT22;54391;50.000;7.360;2022-08-19T04:55:00;16.80;55.60
39401;DHT22;54391;50.000;7.360;2022-08-19T04:57:29;18.60;58.40
39401;DHT22;54391;50.000;7.360;2022-08-19T04:59:56;17.00;55.50
39401;DHT22;54391;50.000;7.360;2022-08-19T05:02:25;17.00;55.20
39401;DHT22;54391;50.000;7.360;2022-08-19T05:04:56;17.20;53.50
39401;DHT22;54391;50.000;7.360;2022-08-19T05:07:28;17.10;56.90
39401;DHT22;54391;50.000;7.360;2022-08-19T05:09:56;17.40;53.00
39401;DHT22;54391;50.000;7.360;2022-08-19T05:12:24;17.40;52.80
39401;DHT22;54391;50.000;7.360;2022-08-19T05:14:51;17.40;52.60
39401;DHT22;54391;50.000;7.360;2022-08-19T05:17:18;17.40;53.10
39401;DHT22;54391;50.000;7.360;2022-08-19T05:19:47;17.60;51.40
39401;DHT22;54391;50.000;7.360;2022-08-19T05:22:32;17.50;52.10
39401;DHT22;54391;50.000;7.360;2022-08-19T05:25:05;17.50;52.20
39401;DHT22;54391;50.000;7.360;2022-08-19T05:27:34;17.50;52.80
39401;DHT22;54391;50.000;7.360;2022-08-19T05:30:02;17.70;50.00
39401;DHT22;54391;50.000;7.360;2022-08-19T05:32:30;17.80;49.10
39401;DHT22;54391;50.000;7.360;2022-08-19T05:34:59;17.90;48.00
39401;DHT22;54391;50.000;7.360;2022-08-19T05:37:27;17.90;48.60
39401;DHT22;54391;50.000;7.360;2022-08-19T05:39:55;18.00;47.70
39401;DHT22;54391;50.000;7.360;2022-08-19T05:42:22;18.10;47.00
39401;DHT22;54391;50.000;7.360;2022-08-19T05:44:51;18.00;46.70
39401;DHT22;54391;50.000;7.360;2022-08-19T05:47:19;18.10;46.30
39401;DHT22;54391;50.000;7.360;2022-08-19T05:49:46;18.20;46.20
39401;DHT22;54391;50.000;7.360;2022-08-19T05:52:17;18.20;46.10
39401;DHT22;54391;50.000;7.360;2022-08-19T05:54:45;18.20;46.40
39401;DHT22;54391;50.000;7.360;2022-08-19T05:57:14;18.20;46.80
39401;DHT22;54391;50.000;7.360;2022-08-19T05:59:41;18.50;44.00
39401;DHT22;54391;50.000;7.360;2022-08-19T06:02:11;18.70;42.20
39401;DHT22;54391;50.000;7.360;2022-08-19T06:04:39;18.80;40.80
39401;DHT22;54391;50.000;7.360;2022-08-19T06:07:08;19.00;38.90
39401;DHT22;54391;50.000;7.360;2022-08-19T06:09:37;19.10;38.80
39401;DHT22;54391;50.000;7.360;2022-08-19T06:12:05;19.40;36.80
39401;DHT22;54391;50.000;7.360;2022-08-19T06:14:36;19.70;35.20
39401;DHT22;54391;50.000;7.360;2022-08-19T06:17:03;20.10;32.30
39401;DHT22;54391;50.000;7.360;2022-08-19T06:19:31;20.40;30.50
39401;DHT22;54391;50.000;7.360;2022-08-19T06:21:59;20.70;27.20
39401;DHT22;54391;50.000;7.360;2022-08-19T06:24:29;20.80;27.50
39401;DHT22;54391;50.000;7.360;2022-08-19T06:27:00;20.80;26.80
39401;DHT22;54391;50.000;7.360;2022-08-19T06:29:29;20.80;26.80
39401;DHT22;54391;50.000;7.360;2022-08-19T06:31:58;20.70;27.30
39401;DHT22;54391;50.000;7.360;2022-08-19T06:34:29;20.80;26.20
39401;DHT22;54391;50.000;7.360;2022-08-19T06:36:59;20.90;27.20
39401;DHT22;54391;50.000;7.360;2022-08-19T06:39:34;21.20;25.30
39401;DHT22;54391;50.000;7.360;2022-08-19T06:42:04;21.40;24.20
39401;DHT22;54391;50.000;7.360;2022-08-19T06:44:35;21.60;23.00
39401;DHT22;54391;50.000;7.360;2022-08-19T06:47:05;21.50;23.80
39401;DHT22;54391;50.000;7.360;2022-08-19T06:49:32;21.50;23.70
39401;DHT22;54391;50.000;7.360;2022-08-19T06:52:00;21.30;24.50
39401;DHT22;54391;50.000;7.360;2022-08-19T06:54:28;20.90;26.00
39401;DHT22;54391;50.000;7.360;2022-08-19T06:56:56;20.90;26.10
39401;DHT22;54391;50.000;7.360;2022-08-19T07:01:55;20.30;30.30
39401;DHT22;54391;50.000;7.360;2022-08-19T07:04:25;21.60;31.40
39401;DHT22;54391;50.000;7.360;2022-08-19T07:06:58;20.50;31.00
39401;DHT22;54391;50.000;7.360;2022-08-19T07:09:26;20.70;28.60
39401;DHT22;54391;50.000;7.360;2022-08-19T07:11:54;21.10;26.20
39401;DHT22;54391;50.000;7.360;2022-08-19T07:14:28;21.30;25.10
39401;DHT22;54391;50.000;7.360;2022-08-19T07:16:56;21.30;24.80
39401;DHT22;54391;50.000;7.360;2022-08-19T07:19:25;21.30;23.60
39401;DHT22;54391;50.000;7.360;2022-08-19T07:21:54;21.20;23.40
39401;DHT22;54391;50.000;7.360;2022-08-19T07:24:22;21.20;23.40
39401;DHT22;54391;50.000;7.360;2022-08-19T07:26:52;21.30;23.90
39401;DHT22;54391;50.000;7.360;2022-08-19T07:29:21;21.40;22.80
39401;DHT22;54391;50.000;7.360;2022-08-19T07:31:51;21.60;20.80
39401;DHT22;54391;50.000;7.360;2022-08-19T07:34:18;21.80;19.60
39401;DHT22;54391;50.000;7.360;2022-08-19T07:36:46;22.20;18.90
39401;DHT22;54391;50.000;7.360;2022-08-19T07:39:15;22.50;17.80
39401;DHT22;54391;50.000;7.360;2022-08-19T07:44:11;22.60;17.90
39401;DHT22;54391;50.000;7.360;2022-08-19T07:46:41;22.50;18.20
39401;DHT22;54391;50.000;7.360;2022-08-19T07:49:12;23.00;16.70
39401;DHT22;54391;50.000;7.360;2022-08-19T07:51:43;23.00;16.70
39401;DHT22;54391;50.000;7.360;2022-08-19T07:54:11;23.10;16.10
39401;DHT22;54391;50.000;7.360;2022-08-19T07:56:38;23.30;15.30
39401;DHT22;54391;50.000;7.360;2022-08-19T07:59:06;23.30;15.10
39401;DHT22;54391;50.000;7.360;2022-08-19T08:01:35;23.30;13.90
39401;DHT22;54391;50.000;7.360;2022-08-19T08:04:03;22.90;16.30
39401;DHT22;54391;50.000;7.360;2022-08-19T08:06:49;22.50;17.80
39401;DHT22;54391;50.000;7.360;2022-08-19T08:09:35;23.00;17.00
39401;DHT22;54391;50.000;7.360;2022-08-19T08:12:06;23.60;13.80
39401;DHT22;54391;50.000;7.360;2022-08-19T08:14:36;24.10;12.80
39401;DHT22;54391;50.000;7.360;2022-08-19T08:17:05;23.70;11.50
39401;DHT22;54391;50.000;7.360;2022-08-19T08:19:33;23.60;11.70
39401;DHT22;54391;50.000;7.360;2022-08-19T08:22:03;23.80;11.80
39401;DHT22;54391;50.000;7.360;2022-08-19T08:24:32;25.00;8.90
39401;DHT22;54391;50.000;7.360;2022-08-19T08:27:00;25.50;6.80
39401;DHT22;54391;50.000;7.360;2022-08-19T08:29:29;26.10;2.60
39401;DHT22;54391;50.000;7.360;2022-08-19T08:31:57;26.20;2.50
39401;DHT22;54391;50.000;7.360;2022-08-19T08:34:24;27.00;1.00
39401;DHT22;54391;50.000;7.360;2022-08-19T08:36:52;27.30;1.00
39401;DHT22;54391;50.000;7.360;2022-08-19T08:39:21;27.10;1.00
39401;DHT22;54391;50.000;7.360;2022-08-19T08:41:53;27.50;1.00
39401;DHT22;54391;50.000;7.360;2022-08-19T08:44:23;28.10;1.00
39401;DHT22;54391;50.000;7.360;2022-08-19T08:46:58;28.50;1.00
39401;DHT22;54391;50.000;7.360;2022-08-19T08:49:41;28.20;1.00
39401;DHT22;54391;50.000;7.360;2022-08-19T08:52:23;32.20;1.00
39401;DHT22;54391;50.000;7.360;2022-08-19T08:54:55;28.40;1.00
39401;DHT22;54391;50.000;7.360;2022-08-19T08:57:27;28.60;1.00
39401;DHT22;54391;50.000;7.360;2022-08-19T08:59:57;28.80;1.00
39401;DHT22;54391;50.000;7.360;2022-08-19T09:02:27;28.80;1.00
39401;DHT22;54391;50.000;7.360;2022-08-19T09:04:55;28.70;1.00
39401;DHT22;54391;50.000;7.360;2022-08-19T09:07:32;28.60;1.00
39401;DHT22;54391;50.000;7.360;2022-08-19T09:10:11;28.10;1.00
39401;DHT22;54391;50.000;7.360;2022-08-19T09:12:51;27.70;1.00
39401;DHT22;54391;50.000;7.360;2022-08-19T09:15:32;28.10;1.00
39401;DHT22;54391;50.000;7.360;2022-08-19T09:18:01;27.80;1.00
39401;DHT22;54391;50.000;7.360;2022-08-19T09:20:30;27.90;1.00
39401;DHT22;54391;50.000;7.360;2022-08-19T09:22:58;27.80;1.00
39401;DHT22;54391;50.000;7.360;2022-08-19T09:25:27;28.10;1.00
39401;DHT22;54391;50.000;7.360;2022-08-19T09:27:54;28.10;1.00
39401;DHT22;54391;50.000;7.360;2022-08-19T09:30:25;28.20;1.00
39401;DHT22;54391;50.000;7.360;2022-08-19T09:32:53;28.20;1.00
39401;DHT22;54391;50.000;7.360;2022-08-19T09:35:21;28.40;1.00
39401;DHT22;54391;50.000;7.360;2022-08-19T09:37:49;28.90;1.00
39401;DHT22;54391;50.000;7.360;2022-08-19T09:40:18;27.80;1.00
39401;DHT22;54391;50.000;7.360;2022-08-19T09:42:47;27.90;1.00
39401;DHT22;54391;50.000;7.360;2022-08-19T09:45:15;27.70;1.00
39401;DHT22;54391;50.000;7.360;2022-08-19T09:47:43;28.10;1.00
39401;DHT22;54391;50.000;7.360;2022-08-19T09:50:12;28.90;1.00
39401;DHT22;54391;50.000;7.360;2022-08-19T09:52:39;28.90;1.00
39401;DHT22;54391;50.000;7.360;2022-08-19T09:55:09;28.90;1.00
39401;DHT22;54391;50.000;7.360;2022-08-19T09:57:37;29.40;1.00
39401;DHT22;54391;50.000;7.360;2022-08-19T10:00:09;29.50;1.00
39401;DHT22;54391;50.000;7.360;2022-08-19T10:02:36;29.40;1.00
39401;DHT22;54391;50.000;7.360;2022-08-19T10:05:04;29.60;1.00
39401;DHT22;54391;50.000;7.360;2022-08-19T10:07:49;29.20;1.00
39401;DHT22;54391;50.000;7.360;2022-08-19T10:10:17;29.70;1.00
39401;DHT22;54391;50.000;7.360;2022-08-19T10:12:44;29.70;1.00
39401;DHT22;54391;50.000;7.360;2022-08-19T10:15:14;27.60;1.00
39401;DHT22;54391;50.000;7.360;2022-08-19T10:17:42;27.60;1.00
39401;DHT22;54391;50.000;7.360;2022-08-19T10:20:10;26.20;1.00
39401;DHT22;54391;50.000;7.360;2022-08-19T10:22:37;26.10;1.00
39401;DHT22;54391;50.000;7.360;2022-08-19T10:25:06;25.50;1.00
39401;DHT22;54391;50.000;7.360;2022-08-19T10:27:34;27.20;1.00
39401;DHT22;54391;50.000;7.360;2022-08-19T10:30:03;27.60;1.00
39401;DHT22;54391;50.000;7.360;2022-08-19T10:32:32;27.60;1.00
39401;DHT22;54391;50.000;7.360;2022-08-19T10:37:27;28.60;1.00
39401;DHT22;54391;50.000;7.360;2022-08-19T10:39:56;29.20;1.00
39401;DHT22;54391;50.000;7.360;2022-08-19T10:42:23;29.10;1.00
39401;DHT22;54391;50.000;7.360;2022-08-19T10:44:51;29.30;1.00
39401;DHT22;54391;50.000;7.360;2022-08-19T10:52:35;29.80;1.00
39401;DHT22;54391;50.000;7.360;2022-08-19T10:55:04;30.10;1.00
39401;DHT22;54391;50.000;7.360;2022-08-19T10:57:49;29.80;1.00
39401;DHT22;54391;50.000;7.360;2022-08-19T11:00:19;30.20;1.00
39401;DHT22;54391;50.000;7.360;2022-08-19T11:07:44;30.20;1.00
39401;DHT22;54391;50.000;7.360;2022-08-19T11:10:13;29.60;1.00
39401;DHT22;54391;50.000;7.360;2022-08-19T11:12:44;29.70;1.00
39401;DHT22;54391;50.000;7.360;2022-08-19T11:15:13;29.60;1.00
39401;DHT22;54391;50.000;7.360;2022-08-19T11:17:41;29.80;1.00
39401;DHT22;54391;50.000;7.360;2022-08-19T11:20:10;29.30;1.00
39401;DHT22;54391;50.000;7.360;2022-08-19T11:22:40;29.70;1.00
39401;DHT22;54391;50.000;7.360;2022-08-19T11:25:09;30.40;1.00
39401;DHT22;54391;50.000;7.360;2022-08-19T11:27:38;30.40;1.00
39401;DHT22;54391;50.000;7.360;2022-08-19T11:30:08;29.80;1.00
39401;DHT22;54391;50.000;7.360;2022-08-19T11:32:36;29.80;1.00
39401;DHT22;54391;50.000;7.360;2022-08-19T11:35:04;29.80;1.00
39401;DHT22;54391;50.000;7.360;2022-08-19T11:37:32;29.90;1.00
39401;DHT22;54391;50.000;7.360;2022-08-19T11:40:06;29.90;1.00
39401;DHT22;54391;50.000;7.360;2022-08-19T11:42:34;29.90;1.00
39401;DHT22;54391;50.000;7.360;2022-08-19T11:45:19;29.70;1.00
39401;DHT22;54391;50.000;7.360;2022-08-19T11:47:46;29.80;1.00
39401;DHT22;54391;50.000;7.360;2022-08-19T11:50:14;29.90;1.00
39401;DHT22;54391;50.000;7.360;2022-08-19T11:52:42;29.70;1.00
39401;DHT22;54391;50.000;7.360;2022-08-19T11:55:12;29.90;1.00
39401;DHT22;54391;50.000;7.360;2022-08-19T11:57:40;30.10;1.00
39401;DHT22;54391;50.000;7.360;2022-08-19T12:00:10;29.70;1.00
39401;DHT22;54391;50.000;7.360;2022-08-19T12:02:38;29.70;1.00
39401;DHT22;54391;50.000;7.360;2022-08-19T12:05:06;29.70;1.00
39401;DHT22;54391;50.000;7.360;2022-08-19T12:07:34;29.80;1.00
39401;DHT22;54391;50.000;7.360;2022-08-19T12:10:02;29.80;1.00
39401;DHT22;54391;50.000;7.360;2022-08-19T12:12:31;29.80;1.00
39401;DHT22;54391;50.000;7.360;2022-08-19T12:14:58;29.70;1.00
39401;DHT22;54391;50.000;7.360;2022-08-19T12:17:28;28.90;1.00
39401;DHT22;54391;50.000;7.360;2022-08-19T12:19:56;28.80;1.00
39401;DHT22;54391;50.000;7.360;2022-08-19T12:22:23;28.80;1.00
39401;DHT22;54391;50.000;7.360;2022-08-19T12:24:51;28.60;1.00
39401;DHT22;54391;50.000;7.360;2022-08-19T12:27:19;28.10;1.00
39401;DHT22;54391;50.000;7.360;2022-08-19T12:29:48;27.30;1.00
39401;DHT22;54391;50.000;7.360;2022-08-19T12:32:15;27.30;1.00
39401;DHT22;54391;50.000;7.360;2022-08-19T12:34:43;26.70;1.00
39401;DHT22;54391;50.000;7.360;2022-08-19T12:37:10;26.60;1.00
39401;DHT22;54391;50.000;7.360;2022-08-19T12:39:39;26.40;1.00
39401;DHT22;54391;50.000;7.360;2022-08-19T12:42:11;26.10;1.00
39401;DHT22;54391;50.000;7.360;2022-08-19T12:44:52;26.10;1.00
39401;DHT22;54391;50.000;7.360;2022-08-19T12:47:22;26.20;1.00
39401;DHT22;54391;50.000;7.360;2022-08-19T12:49:52;26.90;1.00
39401;DHT22;54391;50.000;7.360;2022-08-19T12:52:20;26.90;1.00
39401;DHT22;54391;50.000;7.360;2022-08-19T12:54:47;27.30;1.00
39401;DHT22;54391;50.000;7.360;2022-08-19T12:57:15;27.50;1.00
39401;DHT22;54391;50.000;7.360;2022-08-19T12:59:42;27.70;1.00
39401;DHT22;54391;50.000;7.360;2022-08-19T13:02:11;27.90;1.00
39401;DHT22;54391;50.000;7.360;2022-08-19T13:04:39;28.00;1.00
39401;DHT22;54391;50.000;7.360;2022-08-19T13:07:07;28.00;1.00
39401;DHT22;54391;50.000;7.360;2022-08-19T13:09:35;28.10;1.00
39401;DHT22;54391;50.000;7.360;2022-08-19T13:12:04;28.10;1.00
39401;DHT22;54391;50.000;7.360;2022-08-19T13:14:34;28.20;1.00
39401;DHT22;54391;50.000;7.360;2022-08-19T13:17:01;28.40;1.00
39401;DHT22;54391;50.000;7.360;2022-08-19T13:19:31;28.30;1.00
39401;DHT22;54391;50.000;7.360;2022-08-19T13:21:58;28.20;1.00
39401;DHT22;54391;50.000;7.360;2022-08-19T13:24:25;28.40;1.00
39401;DHT22;54391;50.000;7.360;2022-08-19T13:26:53;28.40;1.00
39401;DHT22;54391;50.000;7.360;2022-08-19T13:29:20;28.10;1.00
39401;DHT22;54391;50.000;7.360;2022-08-19T13:32:05;28.10;1.00
39401;DHT22;54391;50.000;7.360;2022-08-19T13:37:19;27.40;1.00
39401;DHT22;54391;50.000;7.360;2022-08-19T13:40:08;27.30;1.00
39401;DHT22;54391;50.000;7.360;2022-08-19T13:42:37;27.20;1.00
39401;DHT22;54391;50.000;7.360;2022-08-19T13:45:06;26.90;1.00
39401;DHT22;54391;50.000;7.360;2022-08-19T13:47:34;26.90;1.00
39401;DHT22;54391;50.000;7.360;2022-08-19T13:50:04;26.70;1.00
39401;DHT22;54391;50.000;7.360;2022-08-19T13:54:59;26.50;1.00
39401;DHT22;54391;50.000;7.360;2022-08-19T13:57:27;26.30;1.00
39401;DHT22;54391;50.000;7.360;2022-08-19T13:59:54;26.50;1.00
39401;DHT22;54391;50.000;7.360;2022-08-19T14:02:21;26.50;1.00
39401;DHT22;54391;50.000;7.360;2022-08-19T14:07:17;26.70;1.00
39401;DHT22;54391;50.000;7.360;2022-08-19T14:09:45;26.80;1.00
39401;DHT22;54391;50.000;7.360;2022-08-19T14:12:12;26.80;1.00
39401;DHT22;54391;50.000;7.360;2022-08-19T14:14:40;26.90;1.00
39401;DHT22;54391;50.000;7.360;2022-08-19T14:17:08;26.80;1.00
39401;DHT22;54391;50.000;7.360;2022-08-19T14:19:35;26.80;1.00
39401;DHT22;54391;50.000;7.360;2022-08-19T14:22:02;26.90;1.00
39401;DHT22;54391;50.000;7.360;2022-08-19T14:24:32;27.10;1.00
39401;DHT22;54391;50.000;7.360;2022-08-19T14:26:59;27.10;1.00
39401;DHT22;54391;50.000;7.360;2022-08-19T14:29:29;27.10;1.00
39401;DHT22;54391;50.000;7.360;2022-08-19T14:34:24;27.10;1.00
39401;DHT22;54391;50.000;7.360;2022-08-19T14:36:52;27.00;1.00
39401;DHT22;54391;50.000;7.360;2022-08-19T14:39:19;27.20;1.00
39401;DHT22;54391;50.000;7.360;2022-08-19T14:41:48;27.20;1.00
39401;DHT22;54391;50.000;7.360;2022-08-19T14:44:15;27.20;1.00
39401;DHT22;54391;50.000;7.360;2022-08-19T14:46:42;27.20;1.00
39401;DHT22;54391;50.000;7.360;2022-08-19T14:49:11;27.00;1.00
39401;DHT22;54391;50.000;7.360;2022-08-19T14:51:38;26.90;1.00
39401;DHT22;54391;50.000;7.360;2022-08-19T14:59:02;26.90;1.00
39401;DHT22;54391;50.000;7.360;2022-08-19T15:01:30;26.90;1.00
39401;DHT22;54391;50.000;7.360;2022-08-19T15:03:57;26.80;1.00
39401;DHT22;54391;50.000;7.360;2022-08-19T15:06:26;26.60;1.00
39401;DHT22;54391;50.000;7.360;2022-08-19T15:08:54;26.70;1.00
39401;DHT22;54391;50.000;7.360;2022-08-19T15:11:23;26.70;1.00
39401;DHT22;54391;50.000;7.360;2022-08-19T15:13:54;26.70;1.00
39401;DHT22;54391;50.000;7.360;2022-08-19T15:16:23;26.60;1.00
39401;DHT22;54391;50.000;7.360;2022-08-19T15:18:53;26.70;1.00
39401;DHT22;54391;50.000;7.360;2022-08-19T15:21:22;26.50;1.00
39401;DHT22;54391;50.000;7.360;2022-08-19T15:23:50;26.20;1.00
39401;DHT22;54391;50.000;7.360;2022-08-19T15:26:19;26.60;1.00
39401;DHT22;54391;50.000;7.360;2022-08-19T15:28:47;26.50;1.00
39401;DHT22;54391;50.000;7.360;2022-08-19T15:31:18;26.80;1.00
39401;DHT22;54391;50.000;7.360;2022-08-19T15:33:47;26.80;1.00
39401;DHT22;54391;50.000;7.360;2022-08-19T15:36:15;26.70;1.00
39401;DHT22;54391;50.000;7.360;2022-08-19T15:41:17;26.90;1.00
39401;DHT22;54391;50.000;7.360;2022-08-19T15:43:53;27.00;1.00
39401;DHT22;54391;50.000;7.360;2022-08-19T15:46:23;27.30;1.00
39401;DHT22;54391;50.000;7.360;2022-08-19T15:48:53;26.90;1.00
39401;DHT22;54391;50.000;7.360;2022-08-19T15:51:21;27.10;1.00
39401;DHT22;54391;50.000;7.360;2022-08-19T15:53:50;26.90;1.00
39401;DHT22;54391;50.000;7.360;2022-08-19T15:56:18;26.90;1.00
39401;DHT22;54391;50.000;7.360;2022-08-19T15:58:45;26.80;1.00
39401;DHT22;54391;50.000;7.360;2022-08-19T16:01:30;26.90;1.00
39401;DHT22;54391;50.000;7.360;2022-08-19T16:04:16;26.80;1.00
39401;DHT22;54391;50.000;7.360;2022-08-19T16:07:01;26.80;1.00
39401;DHT22;54391;50.000;7.360;2022-08-19T16:09:30;26.50;1.00
39401;DHT22;54391;50.000;7.360;2022-08-19T16:12:01;26.50;1.00
39401;DHT22;54391;50.000;7.360;2022-08-19T16:14:29;26.20;1.00
39401;DHT22;54391;50.000;7.360;2022-08-19T16:19:26;26.00;1.00
39401;DHT22;54391;50.000;7.360;2022-08-19T16:21:55;25.80;1.00
39401;DHT22;54391;50.000;7.360;2022-08-19T16:24:25;25.60;1.00
39401;DHT22;54391;50.000;7.360;2022-08-19T16:26:53;25.60;1.00
39401;DHT22;54391;50.000;7.360;2022-08-19T16:29:21;25.60;1.00
39401;DHT22;54391;50.000;7.360;2022-08-19T16:31:48;25.50;1.00
39401;DHT22;54391;50.000;7.360;2022-08-19T16:36:45;25.40;1.00
39401;DHT22;54391;50.000;7.360;2022-08-19T16:39:14;25.30;1.00
39401;DHT22;54391;50.000;7.360;2022-08-19T16:41:44;25.20;1.00
39401;DHT22;54391;50.000;7.360;2022-08-19T16:44:14;25.10;1.00
39401;DHT22;54391;50.000;7.360;2022-08-19T16:49:13;25.00;1.00
39401;DHT22;54391;50.000;7.360;2022-08-19T16:51:41;25.00;1.00
39401;DHT22;54391;50.000;7.360;2022-08-19T16:56:38;25.00;1.00
39401;DHT22;54391;50.000;7.360;2022-08-19T16:59:05;24.90;1.00
39401;DHT22;54391;50.000;7.360;2022-08-19T17:01:32;24.80;1.00
39401;DHT22;54391;50.000;7.360;2022-08-19T17:03:59;24.80;1.00